Aviation Digital Data Service (ADDS)

Output produced by METARs form (0545 UTC 29 May 2016)
found at http://aviationweather.gov/adds/metars/
 
KLCH 290522Z 2906/3006 18005KT P6SM SCT250 
     FM291400 VRB05KT P6SM SCT025 
     FM291700 08005KT P6SM BKN250